Streetsboro, Ohio
Current Conditions -  °F | °C
As of 2:41 PM on Thursday 27 Nov 2014 (Local Time) from KPOV Reporting Station
Overcast Overcast  
Wind Chill: 20°   Ceiling: 2800
Heat Index: 30°   Visibility: 7mi
Dew Point: 20°   Wind: 13mph
Humidity: 64%   Direction: 290°WNW
Pressure: 30.11"   Gusts: NA
Location:  41.24°N, 81.34°W
Report Text: KPOV 271941Z AUTO 29011KT 7SM OVC028 M01/M07 A3011 RMK AO2 T10091069
Loading
Personal Weather Stations






























Interactive Weather Map New forecast layout! Learn more

10-Day Weather Forecast

Advertisements
Track Severe Weather on mobile